Latest Coastal Weather Observations for Roebourne Airport

IDW60701

Issued at 1:33 am WST Thursday 3 September 2026 (issued every 10 minutes, with the page automatically refreshed every 10 minutes)

About coastal observations | Map of coastal stations | Coastal observations for WA | Marine services | Other Formats
Station Details ID: 004090 Name: ROEBOURNE AERO Lat: -20.76 Lon: 117.16 Height: 10.7 m
Data from the previous 72 hours. | See also: Recent months at Roebourne Airport
Date/Time
WST
Wind Sea
Height
m
Swell Vis
km
Cloud Weather Temp
°C
Press
MSL
hPa
Rain since
9am
mm
Dir  Spd
kts
Gust
kts
Height
m
Period
s
Dir
03/01:30am W 7 9 - - - - - - - 21.2 1014.9 0.0
03/01:00am W 8 9 - - - - - - - 21.5 1015.0 0.0
03/12:30am WSW 8 10 - - - - - - - 22.3 1015.3 0.0
03/12:00am WSW 9 13 - - - - - - - 23.0 1015.6 0.0
 
Date/Time
WST
Wind Sea
Height
m
Swell Vis
km
Cloud Weather Temp
°C
Press
MSL
hPa
Rain since
9am
mm
Dir  Spd
kts
Gust
kts
Height
m
Period
s
Dir
02/11:30pm W 10 13 - - - - - - - 22.5 1015.7 0.0
02/11:00pm W 10 13 - - - - - - - 23.0 1015.6 0.0
02/10:30pm W 11 14 - - - - - - - 23.8 1015.7 0.0
02/10:00pm WSW 9 13 - - - - - - - 24.3 1015.9 0.0
02/09:30pm WSW 9 11 - - - - - - - 24.4 1015.9 0.0
02/09:00pm W 8 11 - - - - - - - 24.3 1015.7 0.0
02/08:30pm W 8 11 - - - - - - - 24.9 1015.6 0.0
02/08:00pm W 11 14 - - - - - - - 25.8 1015.4 0.0
02/07:30pm WNW 9 12 - - - - - - - 26.2 1015.1 0.0
02/07:00pm WNW 11 14 - - - - - - - 27.1 1015.0 0.0
02/06:30pm WNW 13 16 - - - - - - - 28.1 1014.8 0.0
02/06:00pm WNW 13 16 - - - - - - - 29.4 1014.8 0.0
02/05:30pm WNW 16 19 - - - - - - - 31.2 1014.5 0.0
02/05:00pm WNW 15 19 - - - - - - - 32.5 1014.2 0.0
02/04:30pm WNW 15 19 - - - - - - - 33.6 1014.0 0.0
02/04:00pm WNW 15 19 - - - - - - - 34.4 1013.9 0.0
02/03:30pm NW 15 19 - - - - - - - 35.0 1013.8 0.0
02/03:00pm NW 15 18 - - - - - - - 35.4 1013.9 0.0
02/02:30pm NW 14 24 - - - - - - - 35.8 1014.2 0.0
02/02:00pm NW 13 17 - - - - - - - 36.2 1014.5 0.0
02/01:30pm NW 12 16 - - - - - - - 36.6 1014.7 0.0
02/01:00pm WNW 11 14 - - - - - - - 37.3 1015.0 0.0
02/12:30pm N 11 22 - - - - - - - 36.5 1015.2 0.0
02/12:00pm W 8 11 - - - - - - - 36.9 1015.6 0.0
02/11:30am WNW 5 10 - - - - - - - 36.0 1016.1 0.0
02/11:00am WSW 6 9 - - - - - - - 35.1 1016.4 0.0
02/10:30am SW 4 9 - - - - - - - 34.2 1016.9 0.0
02/10:00am NNW 3 5 - - - - - - - 33.3 1017.3 0.0
02/09:30am W 3 6 - - - - - - - 31.7 1017.5 0.0
02/09:00am SSW 3 6 - - - - - - - 29.3 1017.5 0.0
02/08:30am SW 5 6 - - - - - - - 27.6 1017.4 0.0
02/08:00am WSW 6 7 - - - - - - - 25.8 1017.4 0.0
02/07:30am WSW 8 9 - - - - - - - 23.9 1017.1 0.0
02/07:00am WSW 8 10 - - - - - - - 22.6 1016.8 0.0
02/06:30am WSW 8 9 - - - - - - - 21.1 1016.5 0.0
02/06:00am W 6 7 - - - - - - - 20.2 1016.4 0.0
02/05:30am WSW 7 8 - - - - - - - 21.0 1016.3 0.0
02/05:00am W 6 8 - - - - - - - 21.2 1016.3 0.0
02/04:30am WSW 7 9 - - - - - - - 21.7 1016.2 0.0
02/04:00am WSW 8 10 - - - - - - - 21.8 1016.2 0.0
02/03:30am WSW 7 8 - - - - - - - 22.2 1016.3 0.0
02/03:00am SW 7 9 - - - - - - - 22.5 1016.3 0.0
02/02:30am SW 9 11 - - - - - - - 23.3 1016.3 0.0
02/02:00am SW 7 9 - - - - - - - 23.3 1016.5 0.0
02/01:30am SW 8 11 - - - - - - - 23.5 1016.7 0.0
02/01:00am SW 9 11 - - - - - - - 23.7 1017.0 0.0
02/12:30am SW 8 11 - - - - - - - 23.6 1017.3 0.0
02/12:00am SW 8 10 - - - - - - - 23.8 1017.5 0.0
 
Date/Time
WST
Wind Sea
Height
m
Swell Vis
km
Cloud Weather Temp
°C
Press
MSL
hPa
Rain since
9am
mm
Dir  Spd
kts
Gust
kts
Height
m
Period
s
Dir
01/11:30pm WSW 6 9 - - - - - - - 23.5 1017.6 0.0
01/11:00pm W 6 7 - - - - - - - 22.8 1017.7 0.0
01/10:30pm W 7 9 - - - - - - - 23.7 1017.7 0.0
01/10:00pm W 7 9 - - - - - - - 24.5 1017.8 0.0
01/09:30pm WSW 6 7 - - - - - - - 24.9 1017.7 0.0
01/09:00pm W 6 8 - - - - - - - 25.2 1017.7 0.0
01/08:30pm W 6 7 - - - - - - - 25.2 1017.6 0.0
01/08:00pm W 4 6 - - - - - - - 25.1 1017.3 0.0
01/07:30pm WNW 6 7 - - - - - - - 26.0 1016.9 0.0
01/07:00pm WNW 9 11 - - - - - - - 27.5 1016.7 0.0
01/06:30pm WNW 8 11 - - - - - - - 28.5 1016.6 0.0
01/06:00pm WNW 9 11 - - - - - - - 29.6 1016.4 0.0
01/05:30pm WNW 12 14 - - - - - - - 31.2 1016.2 0.0
01/05:00pm WNW 11 14 - - - - - - - 32.6 1016.0 0.0
01/04:30pm WNW 11 15 - - - - - - - 33.3 1015.8 0.0
01/04:00pm NW 12 15 - - - - - - - 33.9 1015.6 0.0
01/03:30pm NNW 13 16 - - - - - - - 34.3 1015.5 0.0
01/03:00pm NNW 13 16 - - - - - - - 34.8 1015.5 0.0
01/02:30pm N 13 17 - - - - - - - 35.2 1015.6 0.0
01/02:00pm N 13 16 - - - - - - - 35.2 1015.8 0.0
01/01:30pm NNW 9 13 - - - - - - - 36.0 1016.0 0.0
01/01:00pm N 11 15 - - - - - - - 35.6 1016.3 0.0
01/12:30pm NNE 11 16 - - - - - - - 35.7 1016.7 0.0
01/12:00pm NNE 10 13 - - - - - - - 34.5 1017.1 0.0
01/11:30am SSW 6 11 - - - - - - - 34.7 1017.5 0.0
01/11:00am SW 5 8 - - - - - - - 34.2 1017.9 0.0
01/10:30am SW 4 7 - - - - - - - 33.7 1018.1 0.0
01/10:00am S 5 8 - - - - - - - 32.7 1018.3 0.0
01/09:30am S 5 7 - - - - - - - 31.6 1018.6 0.0
01/09:00am S 6 8 - - - - - - - 30.3 1018.8 0.0
01/08:30am SSW 6 7 - - - - - - - 27.7 1018.9 0.0
01/08:00am SSW 6 7 - - - - - - - 25.6 1018.9 0.0
01/07:30am SW 4 6 - - - - - - - 23.8 1018.7 0.0
01/07:00am SW 8 9 - - - - - - - 22.2 1018.5 0.0
01/06:30am SW 9 9 - - - - - - - 21.0 1018.3 0.0
01/06:00am SW 9 10 - - - - - - - 20.6 1018.1 0.0
01/05:30am SW 7 8 - - - - - - - 20.5 1018.0 0.0
01/05:00am WSW 5 7 - - - - - - - 20.3 1017.9 0.0
01/04:30am WSW 5 6 - - - - - - - 20.5 1017.9 0.0
01/04:00am SW 4 5 - - - - - - - 20.0 1017.8 0.0
01/03:30am CALM 0 5 - - - - - - - 19.8 1018.0 0.0
01/03:00am SW 7 8 - - - - - - - 21.8 1018.1 0.0
01/02:30am WSW 7 8 - - - - - - - 22.1 1018.2 0.0
01/02:00am WSW 7 10 - - - - - - - 22.5 1018.3 0.0
01/01:30am WSW 8 9 - - - - - - - 22.6 1018.6 0.0
01/01:00am WSW 7 9 - - - - - - - 22.7 1018.7 0.0
01/12:30am WSW 8 10 - - - - - - - 23.3 1019.0 0.0
01/12:00am WSW 9 11 - - - - - - - 23.7 1019.3 0.0
 
Date/Time
WST
Wind Sea
Height
m
Swell Vis
km
Cloud Weather Temp
°C
Press
MSL
hPa
Rain since
9am
mm
Dir  Spd
kts
Gust
kts
Height
m
Period
s
Dir
31/11:30pm WSW 10 12 - - - - - - - 24.2 1019.4 0.0
31/11:00pm WSW 7 10 - - - - - - - 24.1 1019.5 0.0
31/10:30pm W 6 9 - - - - - - - 24.5 1019.4 0.0
31/10:00pm W 6 7 - - - - - - - 24.0 1019.4 0.0
31/09:30pm W 7 9 - - - - - - - 24.9 1019.4 0.0
31/09:00pm W 10 13 - - - - - - - 25.1 1019.2 0.0
31/08:30pm W 10 13 - - - - - - - 25.6 1019.0 0.0
31/08:00pm W 10 14 - - - - - - - 26.1 1018.8 0.0
31/07:30pm W 8 10 - - - - - - - 26.2 1018.5 0.0
31/07:00pm W 9 12 - - - - - - - 27.0 1018.2 0.0
31/06:30pm WNW 11 14 - - - - - - - 28.0 1017.8 0.0
31/06:00pm WNW 14 16 - - - - - - - 29.3 1017.3 0.0
31/05:30pm WNW 13 15 - - - - - - - 31.0 1017.0 0.0
31/05:00pm WNW 13 16 - - - - - - - 32.5 1016.8 0.0
31/04:30pm WNW 14 17 - - - - - - - 33.6 1016.6 0.0
31/04:00pm WNW 13 18 - - - - - - - 34.0 1016.7 0.0
31/03:30pm NW 13 18 - - - - - - - 34.8 1016.7 0.0
31/03:00pm NW 13 19 - - - - - - - 34.9 1016.6 0.0
31/02:30pm NW 11 16 - - - - - - - 35.2 1016.7 0.0
31/02:00pm NW 11 16 - - - - - - - 35.2 1017.0 0.0
31/01:30pm WNW 11 17 - - - - - - - 35.5 1017.2 0.0
31/01:00pm WNW 8 16 - - - - - - - 35.0 1017.4 0.0
31/12:30pm WNW 11 17 - - - - - - - 34.6 1017.8 0.0
31/12:00pm W 8 13 - - - - - - - 34.3 1018.0 0.0
31/11:30am WSW 10 15 - - - - - - - 34.3 1018.4 0.0
31/11:00am WSW 7 14 - - - - - - - 33.1 1018.8 0.0
31/10:30am WSW 8 12 - - - - - - - 32.2 1019.2 0.0
31/10:00am WSW 8 13 - - - - - - - 31.9 1019.2 0.0
31/09:30am SW 7 10 - - - - - - - 30.7 1019.3 0.0
31/09:00am SSW 6 9 - - - - - - - 28.7 1019.3 0.0
31/08:30am SSE 3 5 - - - - - - - 27.7 1019.1 0.0
31/08:00am SSE 5 6 - - - - - - - 25.3 1018.9 0.0
31/07:30am SW 5 6 - - - - - - - 23.9 1018.6 0.0
31/07:00am WSW 5 6 - - - - - - - 21.9 1018.4 0.0
31/06:30am SW 5 6 - - - - - - - 20.3 1018.2 0.0
31/06:00am WSW 5 6 - - - - - - - 20.0 1017.9 0.0
31/05:30am SW 7 9 - - - - - - - 20.9 1017.7 0.0
31/05:00am SSW 5 6 - - - - - - - 20.1 1017.6 0.0
31/04:30am SW 8 10 - - - - - - - 21.5 1017.3 0.0
31/04:00am SW 7 9 - - - - - - - 21.6 1017.5 0.0
31/03:30am SW 6 8 - - - - - - - 21.2 1017.6 0.0
31/03:00am WSW 6 8 - - - - - - - 21.3 1017.6 0.0
31/02:30am WSW 6 8 - - - - - - - 21.7 1017.8 0.0
31/02:00am WSW 6 7 - - - - - - - 21.6 1018.0 0.0

Other formats

Comma delimited format used in spreadsheet applications
http://www.bom.gov.au/fwo/IDW60701/IDW60701.94308.axf

JavaScript Object Notation format (JSON) in row-major order
http://www.bom.gov.au/fwo/IDW60701/IDW60701.94308.json

Data quality

Most of these data are generated automatically and are frequently updated. Quality checks on data are not normally performed. It is possible for incorrect values to appear. Refer to information at About Latest Weather Observations and please check the disclaimer before using these data.